Latest Weather Observations for Cape Sorell

IDT60801

Issued at 12:01 am EST Friday 31 July 2015 (issued every 30 minutes, with the page automatically refreshed every 10 minutes)

About weather observations | Map of weather stations | Latest weather observations for TAS | Other Formats
Station Details ID: 097000 Name: CAPE SORELL Lat: -42.20 Lon: 145.17 Height: 19.3 m
Data from the previous 72 hours. | See also: Recent months at Cape Sorell
Date/Time
EST
Temp
°C
App
Temp
°C
Dew
Point
Rel
Hum
%
Delta-T
°C
Wind Press
QNH
hPa
Press
MSL
hPa
Rain
since 9 am
mm
Dir
 
Spd
km/h
Gust
km/h
Spd
kts
Gust
kts
31/12:00am 7.6 -2.3 2.9 72 2.0 WSW 44 52 24 28 1011.2 1011.3 9.4
 
Date/Time
EST
Temp
°C
App
Temp
°C
Dew
Point
Rel
Hum
%
Delta-T
°C
Wind Press
QNH
hPa
Press
MSL
hPa
Rain
since 9 am
mm
Dir
 
Spd
km/h
Gust
km/h
Spd
kts
Gust
kts
30/11:42pm 7.0 -1.8 3.4 78 1.5 SW 39 56 21 30 1011.1 1011.2 9.4
30/11:30pm 6.7 -1.6 4.0 83 1.2 SW 37 50 20 27 1011.3 1011.4 9.4
30/11:22pm 6.6 -4.3 3.8 82 1.2 WSW 50 70 27 38 1011.2 1011.3 9.2
30/11:15pm 7.5 -1.3 3.4 75 1.7 WSW 39 69 21 37 1010.0 1010.1 9.2
30/11:14pm 8.0 -0.4 3.7 74 1.8 WSW 37 69 20 37 1010.4 1010.5 9.2
30/11:00pm 8.1 -0.4 3.0 70 2.2 SW 37 44 20 24 1010.4 1010.5 9.2
30/10:30pm 8.1 -1.9 4.1 76 1.7 SW 46 56 25 30 1009.9 1010.0 9.2
30/10:00pm 8.1 -3.4 4.3 77 1.7 SW 54 61 29 33 1009.2 1009.3 9.2
30/09:30pm 8.8 -1.9 4.6 75 1.9 SW 50 59 27 32 1008.4 1008.5 9.2
30/09:00pm 8.4 -2.7 4.6 77 1.7 SW 52 59 28 32 1007.8 1007.9 9.2
30/08:30pm 7.3 -3.7 5.0 85 1.0 SW 52 80 28 43 1007.4 1007.5 9.2
30/08:24pm 8.1 -3.8 4.5 78 1.6 SW 56 80 30 43 1006.7 1006.8 9.0
30/08:00pm 8.6 -3.4 4.6 76 1.8 SW 57 69 31 37 1005.8 1005.9 9.0
30/07:30pm 8.5 -2.7 6.1 85 1.1 SW 54 69 29 37 1004.2 1004.3 9.0
30/07:25pm 8.7 -2.9 6.7 87 0.9 SW 57 76 31 41 1003.8 1003.9 9.0
30/07:00pm 9.2 -1.3 7.5 89 0.8 WSW 52 70 28 38 1002.9 1002.9 9.0
30/06:47pm 9.2 0.9 7.8 91 0.7 W 41 57 22 31 1003.0 1003.1 9.0
30/06:45pm 9.1 1.5 7.7 91 0.7 WNW 37 57 20 31 1003.0 1003.1 9.0
30/06:30pm 8.9 1.7 7.5 91 0.7 NW 35 43 19 23 1002.8 1002.8 8.2
30/06:00pm 8.4 1.1 7.2 92 0.6 WNW 35 48 19 26 1002.1 1002.1 8.2
30/05:59pm 8.4 0.7 7.2 92 0.6 WNW 37 54 20 29 1002.2 1002.2 8.2
30/05:33pm 8.8 0.1 7.9 94 0.4 W 43 61 23 33 1001.9 1001.9 7.6
30/05:30pm 8.7 -0.5 7.8 94 0.4 W 46 61 25 33 1001.8 1001.8 7.6
30/05:15pm 8.6 1.8 7.8 95 0.4 WNW 33 54 18 29 1001.6 1001.6 6.8
30/05:07pm 7.6 -1.4 6.5 93 0.5 WNW 43 67 23 36 1002.0 1002.0 6.2
30/05:03pm 7.9 -3.1 6.7 92 0.6 NNW 54 74 29 40 1001.5 1001.5 6.0
30/05:01pm 9.9 -1.1 9.0 94 0.4 NNW 57 80 31 43 1001.9 1001.9 4.8
30/05:00pm 9.8 -1.6 8.9 94 0.4 N 59 80 32 43 1001.4 1001.4 4.6
30/04:59pm 9.8 -2.0 8.9 94 0.4 N 61 80 33 43 1000.4 1000.4 4.4
30/04:30pm 9.7 -2.6 8.6 93 0.5 N 63 76 34 41 999.4 999.4 3.6
30/04:00pm 9.8 -2.2 8.2 90 0.8 N 61 76 33 41 999.9 999.9 3.2
30/03:49pm 9.8 -1.8 8.2 90 0.8 N 59 80 32 43 1000.0 1000.0 2.8
30/03:30pm 9.9 -2.5 8.2 89 0.8 N 63 80 34 43 1000.2 1000.2 2.2
30/03:00pm 9.9 -2.6 7.5 85 1.2 N 63 85 34 46 1001.3 1001.3 1.2
30/02:30pm 10.2 -2.7 7.6 84 1.2 N 65 85 35 46 1001.3 1001.3 1.0
30/02:00pm 10.3 -1.8 7.7 84 1.3 N 61 80 33 43 1002.2 1002.2 0.8
30/01:30pm 10.1 -2.7 7.9 86 1.1 N 65 85 35 46 1002.6 1002.6 0.4
30/01:02pm 10.9 -1.4 6.8 76 1.9 N 61 83 33 45 1003.3 1003.4 0.0
30/01:00pm 10.9 -1.4 7.0 77 1.9 N 61 76 33 41 1003.6 1003.7 0.0
30/12:34pm 11.2 -1.2 6.7 74 2.1 N 61 80 33 43 1004.1 1004.2 0.0
30/12:30pm 11.3 -1.0 7.0 75 2.1 N 61 76 33 41 1004.4 1004.5 0.0
30/12:16pm 11.2 -0.6 7.5 78 1.8 N 59 78 32 42 1005.0 1005.1 0.0
30/12:00pm 11.3 -1.5 6.4 72 2.3 N 63 80 34 43 1005.3 1005.4 0.0
30/11:53am 11.5 -0.9 6.6 72 2.3 N 61 80 33 43 1005.5 1005.6 0.0
30/11:30am 11.3 -0.7 6.6 73 2.2 N 59 78 32 42 1006.2 1006.3 0.0
30/11:00am 11.0 -1.0 6.4 73 2.2 N 59 72 32 39 1007.2 1007.3 0.0
30/10:36am 11.2 -0.4 6.7 74 2.1 N 57 76 31 41 1007.9 1008.0 0.0
30/10:30am 11.1 -0.9 6.6 74 2.1 N 59 74 32 40 1007.9 1008.0 0.0
30/10:00am 10.9 -1.9 6.3 73 2.2 N 63 82 34 44 1008.6 1008.7 0.0
30/09:56am 10.9 -2.0 6.1 72 2.2 N 63 82 34 44 1008.5 1008.6 0.0
30/09:30am 10.9 -2.3 6.1 72 2.2 N 65 78 35 42 1009.2 1009.3 0.0
30/09:00am 10.9 -2.0 6.1 72 2.2 N 63 76 34 41 1009.7 1009.8 1.4
30/08:30am 11.1 -1.0 6.3 72 2.3 N 59 76 32 41 1010.4 1010.5 1.4
30/08:00am 11.0 -1.4 6.4 73 2.2 N 61 76 33 41 1010.8 1010.9 1.4
30/07:32am 10.9 -1.2 6.3 73 2.2 N 59 80 32 43 1011.4 1011.5 1.4
30/07:30am 10.9 -1.2 6.3 73 2.2 N 59 72 32 39 1011.6 1011.7 1.4
30/07:00am 10.8 -1.2 6.4 74 2.1 N 59 74 32 40 1011.7 1011.8 1.4
30/06:30am 10.9 -0.5 6.6 75 2.0 N 56 67 30 36 1012.4 1012.5 1.4
30/06:00am 10.8 -0.6 6.6 75 2.0 N 56 69 30 37 1012.8 1012.9 1.4
30/05:30am 10.9 -1.2 6.3 73 2.2 N 59 69 32 37 1013.2 1013.3 1.4
30/05:00am 10.6 -0.1 6.6 76 1.9 N 52 65 28 35 1014.1 1014.2 1.4
30/04:30am 10.7 0.1 7.0 78 1.8 N 52 63 28 34 1014.8 1014.9 1.4
30/04:00am 10.6 0.8 6.9 78 1.7 N 48 61 26 33 1015.2 1015.3 1.4
30/03:30am 10.6 1.1 6.9 78 1.8 N 46 59 25 32 1015.8 1015.8 1.4
30/03:00am 10.7 0.9 7.0 78 1.8 N 48 59 26 32 1016.3 1016.3 1.4
30/02:30am 10.8 0.6 6.9 77 1.8 N 50 63 27 34 1016.7 1016.7 1.4
30/02:00am 11.0 0.8 7.1 77 1.9 N 50 61 27 33 1017.1 1017.1 1.4
30/01:30am 10.8 0.6 7.1 78 1.8 N 50 59 27 32 1017.5 1017.5 1.4
30/01:00am 10.8 1.4 7.3 79 1.7 N 46 57 25 31 1018.2 1018.2 1.4
30/12:30am 10.8 1.1 7.3 79 1.7 N 48 57 26 31 1018.3 1018.3 1.4
30/12:00am 11.0 2.3 7.5 79 1.7 N 43 52 23 28 1019.1 1019.1 1.4
 
Date/Time
EST
Temp
°C
App
Temp
°C
Dew
Point
Rel
Hum
%
Delta-T
°C
Wind Press
QNH
hPa
Press
MSL
hPa
Rain
since 9 am
mm
Dir
 
Spd
km/h
Gust
km/h
Spd
kts
Gust
kts
29/11:30pm 11.0 2.3 7.5 79 1.7 N 43 54 23 29 1019.2 1019.2 1.4
29/11:00pm 10.9 2.2 7.6 80 1.6 N 43 50 23 27 1019.8 1019.8 1.4
29/10:30pm 10.8 2.9 8.0 83 1.4 N 39 50 21 27 1020.2 1020.2 1.4
29/10:00pm 11.0 3.5 8.1 82 1.4 N 37 48 20 26 1020.6 1020.6 1.4
29/09:30pm 11.6 5.0 7.9 78 1.8 NNW 32 43 17 23 1021.0 1021.0 1.4
29/09:25pm 11.4 4.3 7.9 79 1.7 NNW 35 54 19 29 1021.1 1021.1 1.4
29/09:00pm 10.9 3.5 8.3 84 1.3 N 37 50 20 27 1021.4 1021.4 1.4
29/08:30pm 11.3 2.7 6.6 73 2.2 NNW 41 57 22 31 1021.5 1021.5 1.4
29/08:28pm 11.5 3.9 7.4 76 2.0 NNW 37 57 20 31 1021.5 1021.5 1.4
29/08:00pm 11.2 4.5 8.1 81 1.5 NNW 33 46 18 25 1021.7 1021.7 1.4
29/07:30pm 10.8 3.8 8.6 86 1.1 NNW 35 48 19 26 1021.8 1021.8 1.4
29/07:00pm 10.6 3.3 8.9 89 0.8 NNW 37 48 20 26 1021.8 1021.8 1.4
29/06:30pm 10.2 2.6 9.0 92 0.6 NNW 39 50 21 27 1021.8 1021.8 1.2
29/06:00pm 10.3 3.1 9.1 92 0.6 NW 37 50 20 27 1021.9 1021.9 1.2
29/05:30pm 10.6 3.8 9.2 91 0.7 NNW 35 52 19 28 1021.9 1021.9 1.2
29/05:26pm 10.7 4.3 9.3 91 0.7 NNW 33 52 18 28 1021.9 1021.9 1.2
29/05:00pm 10.6 4.4 9.2 91 0.7 NNW 32 41 17 22 1022.2 1022.2 1.0
29/04:30pm 11.0 3.7 8.8 86 1.1 NNW 37 48 20 26 1022.5 1022.5 1.0
29/04:00pm 11.4 6.1 8.4 82 1.5 NNW 26 39 14 21 1022.8 1022.8 1.0
29/03:30pm 11.4 6.5 8.6 83 1.4 NNW 24 33 13 18 1023.3 1023.3 1.0
29/03:00pm 11.2 6.3 8.4 83 1.4 NNW 24 35 13 19 1023.6 1023.6 1.0
29/02:30pm 11.1 6.1 9.4 89 0.9 NNW 26 37 14 20 1023.8 1023.8 1.0
29/02:00pm 10.8 4.6 9.2 90 0.8 N 32 37 17 20 1024.2 1024.2 1.0
29/01:30pm 10.4 6.1 9.2 92 0.6 NNW 22 35 12 19 1024.8 1024.8 1.0
29/01:00pm 10.4 4.0 8.7 89 0.8 N 32 43 17 23 1025.1 1025.1 0.6
29/12:30pm 10.3 4.3 8.7 90 0.8 N 30 37 16 20 1025.9 1025.9 0.6
29/12:00pm 10.4 6.1 9.2 92 0.6 NW 22 30 12 16 1026.3 1026.3 0.6
29/11:30am 10.2 4.2 8.8 91 0.7 N 30 35 16 19 1026.6 1026.6 0.2
29/11:00am 10.5 4.2 9.1 91 0.7 N 32 39 17 21 1027.0 1027.0 0.0
29/10:30am 10.2 4.2 8.5 89 0.8 N 30 46 16 25 1027.2 1027.2 0.0
29/10:00am 10.1 4.5 8.7 91 0.7 N 28 33 15 18 1027.4 1027.4 0.0
29/09:30am 9.8 3.8 8.7 93 0.5 N 30 37 16 20 1027.4 1027.4 0.0
29/09:00am 9.6 3.2 8.5 93 0.5 N 32 39 17 21 1027.6 1027.6 3.0
29/08:30am 9.7 4.4 8.5 92 0.6 N 26 32 14 17 1027.9 1027.9 2.6
29/08:00am 9.7 3.2 8.0 89 0.8 N 32 39 17 21 1028.0 1028.0 2.4
29/07:30am 9.4 4.0 7.8 90 0.8 N 26 32 14 17 1027.7 1027.7 2.4
29/07:00am 9.2 3.0 7.8 91 0.7 N 30 39 16 21 1027.9 1027.9 2.4
29/06:30am 9.5 3.7 8.1 91 0.7 N 28 35 15 19 1027.9 1027.9 2.2
29/06:00am 9.6 3.9 8.2 91 0.7 N 28 33 15 18 1027.9 1027.9 2.0
29/05:30am 9.4 4.0 7.8 90 0.8 N 26 32 14 17 1027.9 1027.9 2.0
29/05:00am 9.7 4.7 8.0 89 0.8 N 24 33 13 18 1027.6 1027.6 2.0
29/04:30am 9.9 5.7 7.3 84 1.2 NW 19 30 10 16 1028.0 1028.0 2.0
29/04:00am 9.8 4.8 6.5 80 1.5 NNW 22 26 12 14 1028.0 1028.0 2.0
29/03:30am 9.6 5.4 7.4 86 1.0 NW 19 22 10 12 1028.1 1028.1 2.0
29/03:00am 9.8 6.4 7.6 86 1.0 NW 15 26 8 14 1028.4 1028.4 2.0
29/02:30am 9.7 6.9 7.1 84 1.2 NNW 11 19 6 10 1028.6 1028.6 2.0
29/02:00am 9.8 6.0 7.4 85 1.1 NW 17 22 9 12 1028.5 1028.5 1.8
29/01:30am 9.8 5.1 7.6 86 1.1 NW 22 26 12 14 1028.4 1028.4 1.8
29/01:00am 10.0 5.9 7.9 87 1.0 NW 19 24 10 13 1028.5 1028.5 1.8
29/12:30am 10.1 6.5 8.2 88 0.9 WNW 17 20 9 11 1028.7 1028.7 1.8
29/12:00am 10.0 7.1 8.3 89 0.8 WNW 13 17 7 9 1029.1 1029.1 1.8
 
Date/Time
EST
Temp
°C
App
Temp
°C
Dew
Point
Rel
Hum
%
Delta-T
°C
Wind Press
QNH
hPa
Press
MSL
hPa
Rain
since 9 am
mm
Dir
 
Spd
km/h
Gust
km/h
Spd
kts
Gust
kts
28/11:30pm 10.1 7.3 8.5 90 0.8 W 13 19 7 10 1029.3 1029.3 1.8
28/11:00pm 10.2 7.1 8.8 91 0.7 W 15 20 8 11 1029.3 1029.3 1.8
28/10:30pm 10.2 6.1 8.6 90 0.8 W 20 28 11 15 1029.2 1029.2 1.8
28/10:00pm 10.1 5.6 8.7 91 0.7 WSW 22 28 12 15 1029.2 1029.2 1.8
28/09:30pm 10.0 5.6 8.8 92 0.6 W 22 32 12 17 1029.1 1029.1 1.8
28/09:00pm 10.2 4.3 9.0 92 0.6 WSW 30 37 16 20 1029.2 1029.2 1.8
28/08:30pm 10.8 6.5 9.2 90 0.8 W 22 32 12 17 1029.2 1029.2 1.8
28/08:00pm 10.5 6.1 9.1 91 0.7 W 22 26 12 14 1029.2 1029.2 1.8
28/07:30pm 10.6 7.3 9.4 92 0.6 W 17 22 9 12 1029.2 1029.2 1.8
28/07:00pm 10.6 6.7 9.5 93 0.5 W 20 28 11 15 1029.2 1029.2 1.8
28/06:30pm 10.4 6.1 9.3 93 0.5 W 22 30 12 16 1029.0 1029.0 1.8
28/06:00pm 10.4 6.5 9.3 93 0.5 W 20 30 11 16 1029.0 1029.0 1.4
28/05:30pm 10.7 6.8 9.5 92 0.6 W 20 30 11 16 1028.5 1028.5 1.4
28/05:00pm 10.7 6.8 9.5 92 0.6 W 20 32 11 17 1028.4 1028.4 1.4
28/04:30pm 10.4 6.0 9.0 91 0.7 W 22 32 12 17 1028.3 1028.3 1.4
28/04:00pm 11.1 6.8 9.2 88 0.9 W 22 28 12 15 1028.3 1028.3 1.2
28/03:30pm 11.1 6.8 9.4 89 0.9 W 22 30 12 16 1028.2 1028.2 1.2
28/03:00pm 10.9 5.4 9.2 89 0.8 W 28 44 15 24 1027.7 1027.7 1.2
28/02:30pm 11.3 6.7 9.6 89 0.9 WSW 24 32 13 17 1027.8 1027.8 1.2
28/02:00pm 11.2 6.3 9.8 91 0.7 WSW 26 32 14 17 1027.6 1027.6 1.2
28/01:30pm 11.1 6.2 10.0 93 0.6 W 26 33 14 18 1027.7 1027.7 1.2
28/01:00pm 10.7 4.4 9.6 93 0.5 WSW 33 41 18 22 1027.8 1027.8 1.2
28/12:30pm 11.2 5.9 9.8 91 0.7 WSW 28 37 15 20 1027.9 1027.9 1.0
28/12:00pm 11.2 5.2 10.0 92 0.6 WSW 32 37 17 20 1028.1 1028.1 1.0
28/11:30am 10.8 5.8 9.7 93 0.6 WSW 26 35 14 19 1028.4 1028.4 1.0
28/11:00am 11.1 6.6 9.9 92 0.6 WSW 24 35 13 19 1028.5 1028.5 0.6
28/10:30am 10.7 4.9 9.5 92 0.6 WSW 30 44 16 24 1028.3 1028.3 0.6
28/10:00am 10.7 6.4 9.5 92 0.6 WSW 22 37 12 20 1028.2 1028.2 0.6
28/09:30am 10.4 5.7 9.2 92 0.6 WSW 24 32 13 17 1028.1 1028.1 0.6
28/09:00am 10.8 6.5 9.2 90 0.8 W 22 30 12 16 1027.9 1027.9 3.4
28/08:30am 10.4 6.4 9.2 92 0.6 WSW 20 28 11 15 1027.7 1027.7 3.4
28/08:00am 10.6 5.8 8.9 89 0.8 WSW 24 28 13 15 1027.3 1027.3 3.2
28/07:30am 10.3 3.7 8.7 90 0.8 SW 33 41 18 22 1026.9 1026.9 3.2
28/07:15am 10.6 4.0 8.7 88 0.9 WSW 33 48 18 26 1026.5 1026.5 3.2
28/07:00am 10.7 5.8 8.6 87 1.0 W 24 37 13 20 1026.6 1026.6 3.0
28/06:30am 10.9 6.3 8.1 83 1.4 W 22 30 12 16 1026.4 1026.4 2.8
28/06:00am 10.7 5.3 7.8 82 1.4 W 26 37 14 20 1026.0 1026.0 2.8
28/05:30am 10.6 4.4 7.7 82 1.4 WSW 30 39 16 21 1025.7 1025.7 2.8
28/05:00am 10.5 3.3 7.7 83 1.3 WSW 35 43 19 23 1025.6 1025.6 2.8
28/04:30am 10.7 4.0 7.2 79 1.7 WSW 32 37 17 20 1025.5 1025.5 2.8
28/04:00am 10.8 3.6 7.7 81 1.5 WSW 35 43 19 23 1025.3 1025.3 2.8
28/03:30am 10.6 3.7 7.1 79 1.7 WSW 33 37 18 20 1025.5 1025.5 2.8
28/03:00am 10.4 2.7 7.1 80 1.6 WSW 37 44 20 24 1025.4 1025.4 2.8
28/02:30am 9.7 0.6 6.6 81 1.4 WSW 44 54 24 29 1024.9 1024.9 2.8
28/02:00am 10.2 2.0 8.3 88 0.9 WSW 41 48 22 26 1024.5 1024.5 2.8
28/01:30am 9.4 2.6 7.5 88 0.9 WSW 33 46 18 25 1024.5 1024.5 2.8
28/01:00am 10.4 5.2 7.1 80 1.6 W 24 30 13 16 1024.6 1024.6 2.2
28/12:30am 10.4 5.7 7.8 84 1.3 WSW 22 30 12 16 1024.4 1024.4 2.2

Other Formats:

Comma delimited format used in spreadsheet applications
http://www.bom.gov.au/fwo/IDT60801/IDT60801.94974.axf

JavaScript Object Notation format (JSON) in row-major order
http://www.bom.gov.au/fwo/IDT60801/IDT60801.94974.json